Time;durP1;ratioP1;P1;durP2;ratioP2;P2;SDS_P1;SDS_P2;PMS_P1;PMS_P2;Temp;Humidity;BMP_temperature;BMP_pressure;BME280_temperature;BME280_humidity;BME280_pressure;Samples;Min_cycle;Max_cycle;Signal;HPM_P1;HPM_P2
2021/05/15 00:26:14;;;;;;;5.17;4.50;;;10.60;78.60;;;;;;5096584;22;20457;-90
2021/05/15 01:45:53;;;;;;;7.20;6.60;;;10.30;80.30;;;;;;5122753;22;20458;-91
2021/05/15 01:48:54;;;;;;;8.37;7.67;;;10.70;81.30;;;;;;4997767;28;20406;-90
2021/05/15 02:35:21;;;;;;;10.37;9.47;;;10.60;78.80;;;;;;5224133;22;20488;-90
2021/05/15 03:19:22;;;;;;;8.53;7.93;;;11.10;76.10;;;;;;6002806;22;20387;-88
2021/05/15 03:21:50;;;;;;;9.13;8.40;;;11.90;80.00;;;;;;4962184;29;20461;-89
2021/05/15 03:24:53;;;;;;;7.60;7.20;;;12.50;79.10;;;;;;4948691;28;20489;-89
2021/05/15 03:28:01;;;;;;;8.27;7.77;;;11.60;74.70;;;;;;4940720;28;20414;-89
2021/05/15 03:30:50;;;;;;;8.07;7.50;;;11.50;74.60;;;;;;4980464;28;20461;-89
2021/05/15 03:33:57;;;;;;;7.27;6.87;;;11.20;77.30;;;;;;4964942;28;20829;-89
2021/05/15 03:37:22;;;;;;;6.80;6.20;;;11.40;73.30;;;;;;4948558;28;20427;-90
2021/05/15 03:40:44;;;;;;;7.67;6.70;;;11.60;73.80;;;;;;4933240;29;20426;-89
2021/05/15 03:56:16;;;;;;;6.20;5.90;;;11.50;71.70;;;;;;6062023;22;20434;-89
2021/05/15 04:01:23;;;;;;;4.50;4.40;;;11.60;69.70;;;;;;5171803;22;20469;-90
2021/05/15 04:06:24;;;;;;;5.90;5.53;;;11.60;69.00;;;;;;5222496;22;20265;-90
2021/05/15 04:14:30;;;;;;;5.03;4.83;;;11.40;69.50;;;;;;5071668;22;20468;-90
2021/05/15 04:19:32;;;;;;;6.10;5.83;;;11.90;70.10;;;;;;5008089;22;20469;-89
2021/05/15 04:22:01;;;;;;;5.47;5.27;;;12.00;76.60;;;;;;4998775;28;20444;-88
2021/05/15 04:24:27;;;;;;;7.20;6.57;;;11.90;75.10;;;;;;5000006;28;20205;-90
2021/05/15 04:26:54;;;;;;;7.07;6.43;;;11.70;76.30;;;;;;4997980;28;20420;-92
2021/05/15 04:29:24;;;;;;;6.30;5.90;;;12.50;80.50;;;;;;4980423;28;20446;-90
2021/05/15 04:31:53;;;;;;;7.10;6.80;;;10.80;78.30;;;;;;4994708;28;20421;-90
2021/05/15 04:34:19;;;;;;;7.20;6.63;;;12.10;83.40;;;;;;4982393;28;20397;-90
2021/05/15 04:36:53;;;;;;;6.70;6.30;;;11.60;83.10;;;;;;4999815;28;20435;-91
2021/05/15 04:39:41;;;;;;;6.90;6.50;;;11.50;80.70;;;;;;4982131;28;20432;-90
2021/05/15 04:48:10;;;;;;;8.23;7.53;;;10.80;79.20;;;;;;5660992;22;20480;-90
2021/05/15 05:19:04;;;;;;;6.60;6.30;;;11.10;76.50;;;;;;5775022;22;20488;-90
2021/05/15 05:24:06;;;;;;;6.30;6.00;;;11.10;79.00;;;;;;5201935;22;20357;-86
2021/05/15 05:26:37;;;;;;;6.23;6.03;;;11.20;77.00;;;;;;4975127;28;20464;-86
2021/05/15 05:29:08;;;;;;;7.43;6.83;;;11.20;77.20;;;;;;4957269;28;20432;-88
2021/05/15 05:31:39;;;;;;;5.87;5.63;;;11.30;77.50;;;;;;4974571;28;20489;-87
2021/05/15 05:34:05;;;;;;;5.90;5.60;;;11.30;76.90;;;;;;4974772;28;20441;-87
2021/05/15 05:36:31;;;;;;;4.80;4.70;;;11.40;76.70;;;;;;4957171;28;20437;-86
2021/05/15 05:39:06;;;;;;;4.90;4.80;;;11.40;76.70;;;;;;4969499;28;20434;-91
2021/05/15 05:44:14;;;;;;;5.40;5.10;;;11.50;76.90;;;;;;5551787;22;20511;-90
2021/05/15 05:58:04;;;;;;;6.13;5.73;;;11.30;76.90;;;;;;5532250;22;10001893;-90
2021/05/15 06:00:31;;;;;;;6.40;6.20;;;12.90;81.00;;;;;;4981086;28;20177;-90
2021/05/15 06:03:00;;;;;;;8.10;6.83;;;11.40;76.30;;;;;;4997149;28;20484;-90
2021/05/15 06:05:28;;;;;;;7.17;6.77;;;13.30;80.80;;;;;;4979876;28;20449;-91
2021/05/15 06:15:53;;;;;;;7.60;7.20;;;11.50;74.70;;;;;;5282160;22;20485;-86
2021/05/15 06:18:19;;;;;;;6.83;6.53;;;11.40;74.80;;;;;;4971456;28;20421;-85
2021/05/15 06:20:45;;;;;;;8.03;7.33;;;11.40;75.90;;;;;;4953620;28;20189;-86
2021/05/15 06:23:11;;;;;;;9.97;7.67;;;11.40;74.90;;;;;;4953770;28;20433;-84
2021/05/15 06:26:08;;;;;;;8.27;7.70;;;11.50;75.40;;;;;;4987586;28;20484;-87
2021/05/15 06:32:03;;;;;;;8.70;8.00;;;11.50;75.50;;;;;;4986116;28;20396;-90
2021/05/15 06:37:01;;;;;;;8.30;7.70;;;11.70;74.30;;;;;;5410413;22;20477;-88
2021/05/15 06:50:42;;;;;;;8.77;8.07;;;11.60;74.60;;;;;;5395937;22;20472;-89
2021/05/15 07:08:40;;;;;;;13.73;10.90;;;11.70;74.20;;;;;;5595156;22;20497;-87
2021/05/15 07:11:06;;;;;;;13.73;11.70;;;12.00;78.70;;;;;;4975676;29;20458;-89
2021/05/15 07:13:31;;;;;;;13.50;12.27;;;11.70;82.20;;;;;;4974246;29;20182;-89
2021/05/15 07:15:57;;;;;;;16.80;13.60;;;11.60;77.80;;;;;;4960456;28;20204;-89
2021/05/15 07:18:23;;;;;;;13.70;12.40;;;11.50;83.20;;;;;;4975863;29;20161;-89
2021/05/15 07:21:03;;;;;;;12.77;11.80;;;12.20;84.90;;;;;;4959983;29;20243;-88
2021/05/15 07:23:29;;;;;;;17.80;16.13;;;12.20;79.30;;;;;;4947338;28;20414;-87
2021/05/15 07:25:58;;;;;;;12.73;11.40;;;12.90;82.70;;;;;;4978570;28;20465;-87
2021/05/15 07:28:48;;;;;;;11.07;10.07;;;11.10;80.50;;;;;;4963286;28;20182;-87
2021/05/15 07:31:14;;;;;;;13.40;12.30;;;11.50;79.20;;;;;;4961371;28;20427;-89
2021/05/15 07:33:40;;;;;;;13.33;12.27;;;11.50;83.50;;;;;;4960673;28;20486;-89
2021/05/15 07:36:06;;;;;;;12.20;11.10;;;11.00;82.30;;;;;;4999446;23;20334;-89
2021/05/15 07:38:40;;;;;;;12.00;10.97;;;11.60;84.50;;;;;;4976142;28;20421;-90
2021/05/15 07:41:09;;;;;;;11.87;10.83;;;12.00;80.10;;;;;;5248728;23;20647;-89
2021/05/15 07:43:35;;;;;;;12.57;11.57;;;13.30;87.20;;;;;;5525996;22;20481;-87
2021/05/15 07:46:01;;;;;;;11.80;10.87;;;11.10;77.80;;;;;;4996483;28;20201;-88
2021/05/15 07:51:21;;;;;;;11.27;10.37;;;11.90;77.50;;;;;;5338295;22;20496;-87
2021/05/15 07:56:20;;;;;;;11.20;10.30;;;12.10;79.00;;;;;;4675267;22;10002710;-88
2021/05/15 07:58:51;;;;;;;13.27;12.17;;;10.40;74.80;;;;;;5099736;23;20246;-88
2021/05/15 08:03:52;;;;;;;13.33;12.23;;;12.10;76.20;;;;;;4238064;26;20477;-88
2021/05/15 08:06:19;;;;;;;13.17;12.13;;;11.80;81.30;;;;;;5211697;23;20531;-89
2021/05/15 08:11:28;;;;;;;13.20;12.00;;;11.70;77.40;;;;;;4660786;26;20230;-90
2021/05/15 08:13:54;;;;;;;12.23;11.37;;;14.10;83.60;;;;;;4983904;28;20443;-87
2021/05/15 08:16:22;;;;;;;13.27;12.17;;;13.40;81.90;;;;;;5186608;23;20496;-90
2021/05/15 08:19:02;;;;;;;;;;;;;;;;;;;;;
2021/05/15 08:21:31;;;;;;;11.43;10.67;;;13.30;80.30;;;;;;5171919;22;20462;-90
2021/05/15 08:24:06;;;;;;;11.10;10.20;;;12.40;84.30;;;;;;5110690;22;20488;-88
2021/05/15 08:26:36;;;;;;;11.43;10.50;;;11.80;79.60;;;;;;4985238;28;20440;-88
2021/05/15 08:29:12;;;;;;;9.87;9.07;;;11.20;81.20;;;;;;4992344;28;20427;-86
2021/05/15 08:31:42;;;;;;;11.43;10.43;;;12.10;78.70;;;;;;4991213;28;20425;-88
2021/05/15 08:34:07;;;;;;;10.50;9.70;;;15.10;86.90;;;;;;4986114;28;20763;-87
2021/05/15 08:36:33;;;;;;;10.87;10.03;;;13.60;82.10;;;;;;4980024;28;20425;-87
2021/05/15 08:38:59;;;;;;;9.87;9.17;;;12.10;75.70;;;;;;4960399;28;20181;-89
2021/05/15 08:41:25;;;;;;;10.07;9.10;;;12.10;75.50;;;;;;4958814;28;20188;-88
2021/05/15 08:43:54;;;;;;;7.80;7.20;;;11.60;74.80;;;;;;4962594;28;20441;-88
2021/05/15 08:46:22;;;;;;;7.90;7.50;;;13.30;73.50;;;;;;4977614;28;20440;-87
2021/05/15 08:48:49;;;;;;;7.67;7.23;;;15.00;70.80;;;;;;4977691;28;20770;-89
2021/05/15 08:51:15;;;;;;;8.27;7.87;;;16.40;64.50;;;;;;4962019;28;20512;-89
2021/05/15 08:53:41;;;;;;;7.30;6.90;;;19.20;63.00;;;;;;4985696;28;20464;-89
2021/05/15 08:56:11;;;;;;;8.13;7.73;;;18.90;59.10;;;;;;4975401;28;20433;-88
2021/05/15 08:58:39;;;;;;;7.90;7.50;;;20.10;55.10;;;;;;5038202;22;20481;-89
2021/05/15 09:01:12;;;;;;;8.47;7.97;;;19.20;53.40;;;;;;4978572;28;20512;-88
2021/05/15 09:03:43;;;;;;;6.60;6.30;;;17.90;54.60;;;;;;4974557;28;20453;-90
2021/05/15 09:06:09;;;;;;;7.60;7.20;;;18.00;54.60;;;;;;5064033;23;20565;-88
2021/05/15 09:08:36;;;;;;;8.00;7.60;;;18.00;55.50;;;;;;5164032;23;21057;-89
2021/05/15 09:11:03;;;;;;;7.30;6.90;;;18.90;55.30;;;;;;4976983;28;20468;-89
2021/05/15 09:13:30;;;;;;;7.07;6.67;;;20.60;52.20;;;;;;4973561;28;20429;-89
2021/05/15 09:16:04;;;;;;;7.50;7.10;;;21.10;53.90;;;;;;4966832;28;20433;-87
2021/05/15 09:18:37;;;;;;;6.50;6.10;;;19.20;50.80;;;;;;4959999;28;20944;-87
2021/05/15 09:21:07;;;;;;;5.80;5.60;;;19.30;50.60;;;;;;4958339;28;20430;-87
2021/05/15 09:23:38;;;;;;;6.33;6.03;;;20.10;49.80;;;;;;4975325;28;20409;-87
2021/05/15 09:26:15;;;;;;;5.30;5.20;;;21.20;47.70;;;;;;4976940;28;20543;-84
2021/05/15 09:28:49;;;;;;;6.00;5.80;;;21.20;45.90;;;;;;4976761;28;20947;-86
2021/05/15 09:31:23;;;;;;;5.87;5.63;;;19.70;48.40;;;;;;4976272;28;20408;-85
2021/05/15 09:33:58;;;;;;;6.53;6.23;;;18.80;47.80;;;;;;4958855;28;20420;-87
2021/05/15 09:36:26;;;;;;;6.00;5.70;;;18.10;51.00;;;;;;4974880;28;20417;-86
2021/05/15 09:39:08;;;;;;;6.70;6.40;;;17.80;50.80;;;;;;4974675;28;20402;-86
2021/05/15 09:41:44;;;;;;;6.97;6.67;;;17.40;51.20;;;;;;4976189;28;20511;-88
2021/05/15 09:44:29;;;;;;;6.53;6.13;;;16.90;53.10;;;;;;5190008;22;20499;-87
2021/05/15 09:46:56;;;;;;;6.73;6.33;;;15.80;55.50;;;;;;4970846;28;20538;-87
2021/05/15 09:49:24;;;;;;;7.90;7.30;;;16.00;56.10;;;;;;4980513;28;20468;-89
2021/05/15 09:51:53;;;;;;;8.43;7.80;;;16.60;59.50;;;;;;4977205;28;20410;-87
2021/05/15 09:54:21;;;;;;;9.60;8.80;;;14.80;60.70;;;;;;4981082;28;20757;-91
2021/05/15 09:57:09;;;;;;;8.20;7.63;;;14.80;63.90;;;;;;4964292;28;20513;-89
2021/05/15 09:59:42;;;;;;;7.33;6.87;;;15.50;67.40;;;;;;4968675;28;20438;-90
2021/05/15 10:04:44;;;;;;;6.77;6.47;;;17.30;59.10;;;;;;4982151;23;20491;-88
2021/05/15 10:07:32;;;;;;;7.30;6.90;;;20.00;57.00;;;;;;4615508;28;10000558;-89
2021/05/15 10:10:01;;;;;;;7.50;7.20;;;18.70;55.70;;;;;;4956596;28;20309;-91
2021/05/15 10:12:27;;;;;;;7.67;7.20;;;19.10;55.00;;;;;;4978693;28;20444;-89
2021/05/15 10:14:53;;;;;;;7.57;6.97;;;20.50;54.70;;;;;;4975238;28;20927;-88
2021/05/15 10:17:19;;;;;;;7.97;7.37;;;20.20;53.50;;;;;;4975082;28;20491;-88
2021/05/15 10:19:44;;;;;;;7.40;7.10;;;21.50;51.90;;;;;;4978403;28;20420;-87
2021/05/15 10:22:10;;;;;;;7.10;6.80;;;22.20;50.40;;;;;;4957046;28;20178;-89
2021/05/15 10:24:37;;;;;;;6.53;6.33;;;23.00;47.40;;;;;;4974868;28;20197;-89
2021/05/15 10:27:09;;;;;;;7.27;6.83;;;23.30;46.60;;;;;;4976603;28;20178;-91
2021/05/15 10:29:37;;;;;;;6.90;6.60;;;24.40;44.10;;;;;;4976835;28;20421;-87
2021/05/15 10:32:03;;;;;;;6.37;6.20;;;24.70;43.60;;;;;;4975017;28;20425;-89
2021/05/15 10:34:34;;;;;;;7.00;6.70;;;24.80;42.10;;;;;;4977025;28;20439;-86
2021/05/15 10:37:03;;;;;;;13.43;12.43;;;24.30;41.60;;;;;;4973834;28;20425;-86
2021/05/15 10:39:32;;;;;;;6.83;6.63;;;23.50;42.10;;;;;;4974925;28;20516;-88
2021/05/15 10:42:00;;;;;;;7.40;7.10;;;22.20;44.10;;;;;;4973813;28;20473;-88
2021/05/15 10:44:37;;;;;;;6.90;6.50;;;21.20;45.20;;;;;;4974198;28;20460;-87
2021/05/15 10:47:03;;;;;;;6.83;6.53;;;20.50;45.90;;;;;;4974177;28;20841;-86
2021/05/15 10:49:29;;;;;;;7.00;6.60;;;19.90;47.30;;;;;;4957074;28;20414;-88
2021/05/15 10:52:10;;;;;;;7.77;7.47;;;18.90;47.90;;;;;;4974018;28;20173;-87
2021/05/15 10:54:36;;;;;;;6.07;5.87;;;19.30;49.80;;;;;;4971901;28;20418;-87
2021/05/15 10:57:06;;;;;;;5.80;5.60;;;19.30;48.10;;;;;;4964809;28;20490;-89
2021/05/15 10:59:35;;;;;;;5.83;5.53;;;19.20;47.20;;;;;;4974818;29;20406;-88
2021/05/15 11:02:13;;;;;;;5.10;4.90;;;18.60;48.80;;;;;;5036359;23;20484;-90
2021/05/15 11:04:52;;;;;;;5.03;4.90;;;18.20;47.90;;;;;;4975718;28;20982;-85
2021/05/15 11:07:39;;;;;;;4.90;4.70;;;17.60;50.10;;;;;;4974674;28;20435;-83
2021/05/15 11:10:11;;;;;;;4.83;4.70;;;16.90;51.30;;;;;;4974849;28;20489;-84
2021/05/15 11:12:39;;;;;;;4.80;4.50;;;16.20;52.20;;;;;;4975327;28;20935;-84
2021/05/15 11:15:09;;;;;;;4.47;4.37;;;14.90;56.60;;;;;;4977523;28;20415;-83
2021/05/15 11:17:35;;;;;;;4.57;4.37;;;14.10;58.60;;;;;;4977890;28;20411;-85
2021/05/15 11:20:10;;;;;;;3.70;3.37;;;13.40;60.50;;;;;;4977462;28;20932;-84
2021/05/15 11:22:41;;;;;;;3.67;3.43;;;13.00;63.10;;;;;;4978257;28;20244;-84
2021/05/15 11:25:13;;;;;;;3.57;3.40;;;12.50;66.30;;;;;;4974822;28;20467;-85
2021/05/15 11:27:58;;;;;;;3.20;3.03;;;12.30;67.60;;;;;;4976812;28;20426;-84
2021/05/15 11:30:41;;;;;;;3.90;3.20;;;12.20;71.30;;;;;;4958807;28;20472;-85
2021/05/15 11:33:07;;;;;;;3.17;2.97;;;12.20;71.10;;;;;;4959018;28;20432;-87
2021/05/15 11:35:44;;;;;;;3.00;2.87;;;12.20;72.50;;;;;;4975925;28;20421;-84
2021/05/15 11:38:12;;;;;;;2.90;2.80;;;12.30;70.40;;;;;;4983548;28;20397;-87
2021/05/15 11:40:45;;;;;;;3.57;2.50;;;12.10;71.20;;;;;;4991363;28;20460;-88
2021/05/15 11:43:39;;;;;;;2.17;2.17;;;11.90;70.50;;;;;;4974770;28;20942;-88
2021/05/15 11:46:07;;;;;;;4.17;3.77;;;12.00;70.90;;;;;;4963228;28;20556;-85
2021/05/15 11:48:37;;;;;;;2.50;2.40;;;11.50;72.10;;;;;;4980051;28;20477;-86
2021/05/15 11:51:14;;;;;;;4.47;3.80;;;12.10;74.90;;;;;;4977540;28;20429;-85
2021/05/15 11:53:41;;;;;;;2.30;2.30;;;12.40;73.70;;;;;;4976618;28;20721;-87
2021/05/15 11:56:18;;;;;;;3.50;3.40;;;12.80;72.50;;;;;;4977208;28;20492;-86
2021/05/15 11:58:47;;;;;;;2.07;2.00;;;13.40;67.20;;;;;;4959297;28;20912;-86
2021/05/15 12:01:27;;;;;;;2.50;2.37;;;14.00;64.30;;;;;;5110323;23;20474;-85
2021/05/15 12:07:08;;;;;;;1.90;1.80;;;14.50;63.20;;;;;;4874501;22;10002025;-88
2021/05/15 12:09:34;;;;;;;2.87;2.77;;;15.30;59.30;;;;;;4972870;28;20181;-86
2021/05/15 12:12:11;;;;;;;2.23;2.23;;;15.50;62.20;;;;;;4974542;28;20460;-89
2021/05/15 12:14:49;;;;;;;3.10;2.80;;;15.70;61.40;;;;;;4957392;28;20436;-89
2021/05/15 12:17:21;;;;;;;3.47;3.37;;;16.10;61.70;;;;;;5013176;28;20408;-87
2021/05/15 12:19:58;;;;;;;2.30;2.23;;;17.90;67.30;;;;;;4978836;28;20424;-88
2021/05/15 12:22:27;;;;;;;2.87;2.77;;;17.50;58.80;;;;;;4977333;28;20465;-89
2021/05/15 12:24:53;;;;;;;3.03;3.03;;;16.00;58.10;;;;;;4988498;28;20971;-91
2021/05/15 12:27:22;;;;;;;3.93;3.70;;;17.20;55.80;;;;;;4992475;28;20452;-89
2021/05/15 12:30:09;;;;;;;3.57;3.57;;;18.20;57.30;;;;;;4998553;28;20491;-89
2021/05/15 12:35:10;;;;;;;4.93;4.83;;;17.80;55.20;;;;;;5334745;22;20522;-88
2021/05/15 12:37:38;;;;;;;4.53;4.33;;;18.20;57.30;;;;;;4984116;28;20429;-86
2021/05/15 12:40:19;;;;;;;4.67;4.57;;;18.40;54.40;;;;;;4972974;28;20440;-87
2021/05/15 12:42:44;;;;;;;4.80;4.70;;;18.10;54.00;;;;;;4966793;28;20491;-86
2021/05/15 12:45:15;;;;;;;4.80;4.70;;;18.70;54.80;;;;;;4980343;28;20464;-87
2021/05/15 12:47:41;;;;;;;5.57;5.27;;;19.00;54.00;;;;;;4981559;28;20170;-86
2021/05/15 12:50:20;;;;;;;4.97;4.70;;;19.40;53.30;;;;;;4983214;28;20503;-87
2021/05/15 12:52:46;;;;;;;3.50;3.40;;;19.60;52.90;;;;;;4983709;28;20424;-89
2021/05/15 12:55:17;;;;;;;3.67;3.57;;;20.20;50.80;;;;;;4958243;28;20433;-89
2021/05/15 12:57:58;;;;;;;3.37;3.27;;;19.50;48.30;;;;;;4970810;28;20436;-89
2021/05/15 13:00:36;;;;;;;3.80;3.57;;;19.20;51.20;;;;;;4976704;28;20448;-90
2021/05/15 13:03:05;;;;;;;3.87;3.77;;;19.50;51.70;;;;;;4642449;28;9999753;-88
2021/05/15 13:05:36;;;;;;;3.20;3.13;;;19.60;51.90;;;;;;4981583;28;20229;-90
2021/05/15 13:08:07;;;;;;;2.30;2.20;;;19.90;49.90;;;;;;4969231;28;20484;-92
2021/05/15 13:10:33;;;;;;;2.10;2.10;;;21.40;49.20;;;;;;4966811;28;20441;-92
2021/05/15 13:13:00;;;;;;;2.10;2.00;;;20.60;47.20;;;;;;4966488;28;20505;-89
2021/05/15 13:15:25;;;;;;;5.60;2.60;;;22.50;46.70;;;;;;4966812;28;20504;-91
2021/05/15 13:18:26;;;;;;;2.23;2.10;;;21.50;46.20;;;;;;4967500;28;20460;-88
2021/05/15 13:21:24;;;;;;;2.10;2.10;;;20.50;46.10;;;;;;4960795;28;20233;-90
2021/05/15 13:23:51;;;;;;;1.70;1.70;;;19.60;47.60;;;;;;4989042;28;20788;-89
2021/05/15 13:26:19;;;;;;;1.55;1.52;;;19.50;47.50;;;;;;4719016;28;10000530;-90
2021/05/15 13:28:55;;;;;;;1.93;1.83;;;20.50;47.10;;;;;;4975443;28;20421;-89
2021/05/15 13:31:29;;;;;;;1.50;1.50;;;19.80;46.40;;;;;;4971771;28;20185;-91
2021/05/15 13:33:55;;;;;;;1.40;1.40;;;19.80;45.40;;;;;;4984775;28;20433;-90
2021/05/15 13:36:27;;;;;;;1.63;1.63;;;20.60;46.30;;;;;;4991937;28;20508;-89
2021/05/15 13:47:21;;;;;;;1.97;1.87;;;19.90;44.80;;;;;;5726742;22;21398;-88
2021/05/15 13:52:24;;;;;;;2.17;2.17;;;19.50;45.00;;;;;;5073232;22;20508;-90
2021/05/15 13:54:50;;;;;;;2.07;1.90;;;19.20;45.90;;;;;;4958923;29;20453;-87
2021/05/15 13:57:16;;;;;;;2.37;2.27;;;18.70;46.30;;;;;;4943518;29;20422;-88
2021/05/15 13:59:41;;;;;;;1.90;1.80;;;18.40;47.30;;;;;;4941620;29;20178;-87
2021/05/15 14:02:07;;;;;;;2.10;2.00;;;18.00;47.40;;;;;;4938838;29;20189;-88
2021/05/15 14:04:33;;;;;;;1.60;1.60;;;17.80;47.50;;;;;;4925820;29;20207;-89
2021/05/15 14:06:59;;;;;;;1.80;1.80;;;17.30;47.50;;;;;;4947051;29;20430;-91
2021/05/15 14:09:25;;;;;;;2.43;2.23;;;16.70;51.20;;;;;;4946422;29;20193;-90
2021/05/15 14:11:51;;;;;;;2.60;2.40;;;17.10;52.30;;;;;;4936994;29;20874;-88
2021/05/15 14:14:16;;;;;;;2.77;1.87;;;16.70;56.00;;;;;;4936075;29;20177;-88
2021/05/15 14:16:42;;;;;;;5.63;3.70;;;14.20;58.80;;;;;;4953953;29;20174;-88
2021/05/15 14:19:07;;;;;;;8.03;7.30;;;13.50;63.90;;;;;;4936716;29;20170;-86
2021/05/15 14:21:33;;;;;;;3.93;3.20;;;12.70;68.60;;;;;;4953736;29;20206;-89
2021/05/15 14:24:00;;;;;;;2.77;2.67;;;12.20;72.40;;;;;;4956956;29;20171;-92
2021/05/15 14:26:45;;;;;;;2.67;1.53;;;11.90;73.20;;;;;;4611155;29;9999838;-90
2021/05/15 14:29:10;;;;;;;2.40;2.30;;;11.90;73.40;;;;;;4972437;29;20216;-88
2021/05/15 14:31:39;;;;;;;5.13;3.50;;;11.60;75.50;;;;;;4930399;29;20446;-89
2021/05/15 14:34:05;;;;;;;2.60;2.40;;;11.50;77.30;;;;;;4920395;29;20591;-89
2021/05/15 14:36:30;;;;;;;2.87;2.67;;;11.60;79.20;;;;;;4935766;29;20502;-88
2021/05/15 14:38:56;;;;;;;3.63;3.17;;;11.70;79.20;;;;;;4920608;29;20236;-92
2021/05/15 14:41:22;;;;;;;2.00;1.90;;;11.90;80.00;;;;;;4934489;29;20252;-91
2021/05/15 14:43:55;;;;;;;2.50;2.40;;;12.30;80.70;;;;;;4940800;28;20258;-91
2021/05/15 14:46:42;;;;;;;5.53;2.07;;;13.20;80.80;;;;;;4926641;28;20222;-90
2021/05/15 14:49:10;;;;;;;2.70;2.60;;;13.50;71.70;;;;;;4946891;28;20427;-92
2021/05/15 14:56:59;;;;;;;3.27;3.07;;;14.80;68.40;;;;;;4222021;23;10001865;-91
2021/05/15 14:59:30;;;;;;;2.70;2.70;;;13.90;68.40;;;;;;4998475;28;20173;-91
2021/05/15 15:01:57;;;;;;;2.93;2.67;;;13.70;67.30;;;;;;4966029;28;20425;-90
2021/05/15 15:04:32;;;;;;;2.57;2.43;;;14.90;69.40;;;;;;4964496;28;20460;-90
2021/05/15 15:06:58;;;;;;;2.00;2.00;;;15.00;70.60;;;;;;4965632;28;20561;-89
2021/05/15 15:09:25;;;;;;;2.20;2.10;;;15.10;68.20;;;;;;4993113;28;20413;-91
2021/05/15 15:11:51;;;;;;;2.33;2.10;;;15.00;66.90;;;;;;4962860;28;20453;-90
2021/05/15 15:14:21;;;;;;;2.77;2.70;;;15.50;68.40;;;;;;4994239;28;20436;-89
2021/05/15 15:16:56;;;;;;;2.23;2.13;;;14.90;68.50;;;;;;4979630;28;20789;-91
2021/05/15 15:19:59;;;;;;;2.67;2.57;;;15.40;66.50;;;;;;4996209;28;20398;-89
2021/05/15 15:25:00;;;;;;;2.67;2.40;;;15.00;64.60;;;;;;3232141;22;20495;-86
2021/05/15 15:27:26;;;;;;;3.30;3.00;;;14.80;69.10;;;;;;4964967;29;20501;-88
2021/05/15 15:29:51;;;;;;;3.40;3.20;;;14.50;68.40;;;;;;4967710;29;20175;-89
2021/05/15 15:32:19;;;;;;;2.30;2.20;;;14.80;68.10;;;;;;4952200;29;20353;-87
2021/05/15 15:34:44;;;;;;;2.20;2.20;;;14.40;69.10;;;;;;4947831;29;20206;-89
2021/05/15 15:37:10;;;;;;;2.90;2.80;;;15.00;70.50;;;;;;4962267;29;20489;-88
2021/05/15 15:39:36;;;;;;;2.60;2.60;;;13.10;70.90;;;;;;4949052;28;20201;-88
2021/05/15 15:42:02;;;;;;;2.40;2.40;;;14.50;74.50;;;;;;4942026;29;20517;-89
2021/05/15 15:44:28;;;;;;;2.50;2.50;;;13.10;76.90;;;;;;4975207;28;20181;-87
2021/05/15 15:46:53;;;;;;;3.80;3.10;;;13.70;79.90;;;;;;4968505;28;20177;-89
2021/05/15 15:49:19;;;;;;;3.80;3.50;;;14.00;78.10;;;;;;4963886;28;20424;-86
2021/05/15 15:51:45;;;;;;;2.23;2.13;;;14.20;77.40;;;;;;4963019;28;20186;-88
2021/05/15 15:54:10;;;;;;;6.33;5.83;;;13.10;74.20;;;;;;4967679;28;20212;-90
2021/05/15 15:56:36;;;;;;;2.27;2.27;;;13.20;75.80;;;;;;4974787;28;20184;-88
2021/05/15 15:59:04;;;;;;;2.40;2.30;;;14.70;77.10;;;;;;4977282;28;20189;-88
2021/05/15 16:01:30;;;;;;;3.60;2.40;;;13.30;76.10;;;;;;4971151;28;20445;-90
2021/05/15 16:04:05;;;;;;;2.13;2.13;;;13.40;74.70;;;;;;4972553;28;20418;-89
2021/05/15 16:06:31;;;;;;;2.50;2.50;;;13.50;74.40;;;;;;4959081;28;20472;-89
2021/05/15 16:08:57;;;;;;;2.03;2.03;;;13.80;73.40;;;;;;4990170;28;20699;-88
2021/05/15 16:11:23;;;;;;;2.90;2.80;;;14.00;73.70;;;;;;4974882;28;20421;-89
2021/05/15 16:13:50;;;;;;;2.90;2.90;;;14.90;73.70;;;;;;4974136;28;20430;-89
2021/05/15 16:16:16;;;;;;;5.93;3.10;;;15.60;76.30;;;;;;4974447;28;20178;-88
2021/05/15 16:18:42;;;;;;;2.47;2.40;;;14.50;70.80;;;;;;4993350;28;20417;-89
2021/05/15 16:21:08;;;;;;;2.57;2.53;;;14.10;70.50;;;;;;4991240;28;20405;-88
2021/05/15 16:23:34;;;;;;;2.57;2.43;;;14.20;71.90;;;;;;4991796;28;20460;-88
2021/05/15 16:26:01;;;;;;;2.27;2.27;;;15.90;72.50;;;;;;4994413;28;20552;-86
2021/05/15 16:28:27;;;;;;;2.80;2.57;;;14.20;69.70;;;;;;4977952;28;20193;-88
2021/05/15 16:30:53;;;;;;;2.47;2.10;;;14.30;72.40;;;;;;4985897;28;20432;-88
2021/05/15 16:33:23;;;;;;;2.37;2.37;;;14.20;69.60;;;;;;4977518;28;20429;-89
2021/05/15 16:35:50;;;;;;;2.43;2.33;;;14.20;70.70;;;;;;4981045;28;20197;-88
2021/05/15 16:38:21;;;;;;;2.07;2.00;;;16.00;73.70;;;;;;4979216;28;20422;-88
2021/05/15 16:40:59;;;;;;;2.33;2.13;;;14.30;68.80;;;;;;4978957;28;20490;-90
2021/05/15 16:43:25;;;;;;;1.70;1.70;;;14.10;66.10;;;;;;5300948;23;20493;-88
2021/05/15 16:45:56;;;;;;;2.50;2.30;;;14.10;69.60;;;;;;4994487;28;20503;-88
2021/05/15 16:48:47;;;;;;;2.10;2.10;;;15.30;68.70;;;;;;5149808;22;20473;-90
2021/05/15 16:51:16;;;;;;;2.90;2.53;;;14.20;67.10;;;;;;4985335;28;20428;-91
2021/05/15 16:59:09;;;;;;;2.13;2.03;;;14.00;68.50;;;;;;4996890;28;20444;-86
2021/05/15 17:01:35;;;;;;;2.37;2.27;;;14.20;66.70;;;;;;5226415;22;20500;-87
2021/05/15 17:04:02;;;;;;;2.90;2.70;;;13.50;70.50;;;;;;4980086;28;20448;-89
2021/05/15 17:06:27;;;;;;;2.57;2.43;;;13.50;69.10;;;;;;5358530;22;20259;-84
2021/05/15 17:08:56;;;;;;;3.03;2.83;;;13.80;67.70;;;;;;4996329;28;20429;-89
2021/05/15 17:11:22;;;;;;;2.07;1.97;;;14.10;68.50;;;;;;4978347;28;20174;-89
2021/05/15 17:13:48;;;;;;;1.93;1.93;;;13.50;70.50;;;;;;4996037;28;20417;-92
2021/05/15 17:16:17;;;;;;;2.47;2.27;;;13.20;67.80;;;;;;4978306;28;20173;-90
2021/05/15 17:18:49;;;;;;;2.70;2.60;;;14.30;70.00;;;;;;4975021;28;20417;-88
2021/05/15 17:21:22;;;;;;;5.23;3.60;;;14.80;69.20;;;;;;4959649;28;20421;-91
2021/05/15 17:29:23;;;;;;;16.10;13.40;;;13.60;68.60;;;;;;5238633;22;20492;-90
2021/05/15 17:31:58;;;;;;;2.60;2.50;;;13.90;71.00;;;;;;4996829;28;20436;-89
2021/05/15 17:37:22;;;;;;;4.73;2.30;;;13.90;69.60;;;;;;5871228;23;20494;-90
2021/05/15 17:39:47;;;;;;;1.90;1.90;;;15.00;69.20;;;;;;4980173;28;20449;-88
2021/05/15 17:44:51;;;;;;;6.33;3.53;;;13.80;67.60;;;;;;5018591;22;20241;-88
2021/05/15 17:47:29;;;;;;;2.70;2.60;;;14.80;72.30;;;;;;4968092;28;20425;-88
2021/05/15 17:57:42;;;;;;;2.00;2.00;;;14.00;68.30;;;;;;5289472;23;20563;-88
2021/05/15 18:05:27;;;;;;;1.97;1.97;;;14.20;66.80;;;;;;5066787;22;20480;-91
2021/05/15 18:07:55;;;;;;;1.57;1.53;;;15.60;71.10;;;;;;4974142;28;20467;-90
2021/05/15 18:10:21;;;;;;;2.13;2.10;;;13.80;68.60;;;;;;4979583;28;20433;-89
2021/05/15 18:12:51;;;;;;;1.93;1.87;;;13.40;70.20;;;;;;4996222;28;20500;-88
2021/05/15 18:18:07;;;;;;;;;;;;;;;;;;;;;
2021/05/15 18:20:42;;;;;;;2.40;2.17;;;13.40;68.40;;;;;;4977974;28;20461;-90
2021/05/15 18:23:22;;;;;;;1.60;1.50;;;13.70;66.20;;;;;;4981056;28;20417;-89
2021/05/15 18:26:13;;;;;;;2.20;2.17;;;13.60;68.40;;;;;;4981772;28;20465;-91
2021/05/15 18:28:49;;;;;;;2.30;2.30;;;13.60;66.20;;;;;;4980906;29;21006;-91
2021/05/15 18:31:20;;;;;;;2.63;2.53;;;13.20;71.00;;;;;;4980259;29;20436;-89
2021/05/15 18:33:54;;;;;;;5.00;4.70;;;12.80;68.20;;;;;;4961665;28;20418;-90
2021/05/15 18:36:29;;;;;;;2.70;2.60;;;15.30;70.90;;;;;;4948593;29;20433;-92
2021/05/15 18:46:36;;;;;;;2.63;2.63;;;13.30;70.00;;;;;;4998554;28;20481;-91
2021/05/15 18:49:08;;;;;;;2.63;2.53;;;13.30;72.60;;;;;;5000535;28;20420;-90
2021/05/15 19:04:50;;;;;;;6.23;4.50;;;13.20;68.00;;;;;;5281308;22;20263;-90
2021/05/15 19:07:16;;;;;;;3.10;3.03;;;14.90;73.00;;;;;;4999981;28;20939;-87
2021/05/15 19:09:44;;;;;;;6.80;2.90;;;13.90;72.80;;;;;;4967254;28;20441;-90
2021/05/15 19:12:10;;;;;;;3.60;3.30;;;13.40;73.10;;;;;;5039970;23;20899;-90
2021/05/15 19:15:20;;;;;;;4.30;3.90;;;12.50;72.50;;;;;;5015527;28;20456;-91
2021/05/15 19:18:55;;;;;;;2.40;2.40;;;12.90;72.40;;;;;;4998217;28;20173;-89
2021/05/15 19:21:28;;;;;;;4.43;4.10;;;13.30;72.80;;;;;;4979074;28;20943;-91
2021/05/15 19:24:14;;;;;;;3.53;3.30;;;12.90;74.20;;;;;;4978180;28;20484;-92
2021/05/15 19:26:59;;;;;;;3.20;3.00;;;12.90;74.20;;;;;;4995628;28;20469;-90
2021/05/15 19:29:37;;;;;;;4.03;3.87;;;12.60;78.20;;;;;;4981602;28;20773;-93
2021/05/15 19:32:05;;;;;;;3.63;3.40;;;13.50;80.80;;;;;;4983305;28;20507;-91
2021/05/15 19:40:02;;;;;;;3.23;2.77;;;12.00;80.40;;;;;;4975659;28;20485;-88
2021/05/15 19:42:36;;;;;;;3.97;3.60;;;11.60;81.40;;;;;;4978431;28;20430;-91
2021/05/15 19:45:10;;;;;;;3.13;2.93;;;13.00;83.80;;;;;;4962630;28;20484;-88
2021/05/15 19:48:05;;;;;;;4.33;4.10;;;11.80;84.10;;;;;;4975534;29;20422;-92
2021/05/15 19:50:52;;;;;;;3.42;3.22;;;12.00;84.50;;;;;;4960630;28;20405;-88